메인 페이지
METAR-TAF:

METAR-TAF

공항 :

타이완 타오위안 국제공항

타이베이, 타이완

위도: 25-05N, 경도: 121-13E, 고도: 33m

현재 날씨관측

예보는 33분 전, 10:00시(UTC)에 발표되었습니다.
북동13kt
온도 23°C
습도 89%
기압 1015 hPa
시정 10km 이상
고도 800ft 상공 구름 조금
고도 3000ft 상공 구름 보통
고도 6000ft 상공 구름 많음

METAR: RCTP 161000Z 04013KT 9999 FEW008 SCT030 BKN060 23/21 Q1015 NOSIG RMK A3000

시각: 18:33 (10:33 UTC)

예보

예보는 5 시간 33분 전, 05:00시(UTC)에 발표되었습니다.
예보 대상 시간: 16일 06시부터 17일 12시까지 (UTC)
북북동10kt
시정 10km 이상
고도 1000ft 상공 구름 조금
고도 1500ft 상공 구름 많음
고도 5000ft 상공 구름 많음
일시적
16일 06시부터 16일 10시까지 (UTC)
고도 600ft 상공 구름 조금
고도 800ft 상공 구름 많음
고도 3000ft 상공 구름 많음
전환 중
16일 10시부터 16일 12시까지 (UTC)
북동15kt
고도 1200ft 상공 구름 조금
고도 2000ft 상공 구름 많음
일시적
16일 12시부터 16일 18시까지 (UTC)
시정: 5000m
고도 800ft 상공 구름 보통
고도 1100ft 상공 구름 많음
고도 3000ft 상공 구름 많음
일시적
16일 20시부터 17일 02시까지 (UTC)
고도 900ft 상공 구름 보통
고도 1200ft 상공 구름 많음
고도 3200ft 상공 구름 많음
일시적
17일 03시부터 17일 09시까지 (UTC)
북북동20kt

TAF: RCTP 160500Z 1606/1712 03010KT 9999 FEW010 BKN015 BKN050 TEMPO 1606/1610 FEW006 BKN008 BKN030 BECMG 1610/1612 04015KT FEW012 BKN020 TEMPO 1612/1618 5000 RA SCT008 BKN011 BKN030 TEMPO 1620/1702 SCT009 BKN012 BKN032 TEMPO 1703/1709 03020KT

4,000개 이상의 공항 관측 자료 및 예보 (METAR 및 TAF 보고).

지도상에서 검색 가능한 기상관측소가 노란 점과 빨간 점으로 표시되어 있습니다.

기상관측소 명을 보려면 표시 위로 마우스를 이동하세요.

날씨 관측과 예보를 보려면 클릭하세요.

지도 변경 : 확대하려면 엑스 표시가 있는 녹색 버튼, 축소하려면 빼기 표시가 있는 녹색 버튼, 다음 페이지의 지도를 보려면 녹색 화살표를 클릭하세요.


METAR-TAF: